createdAt,value
2018-08-27T00:00:25.325Z,39.30
2018-08-27T00:05:27.666Z,40.20
2018-08-27T00:10:29.864Z,41.10
2018-08-27T00:15:32.981Z,42.90
2018-08-27T00:20:35.280Z,44.10
2018-08-27T00:25:39.304Z,44.70
2018-08-27T00:30:41.678Z,45.70
2018-08-27T00:35:43.845Z,45.70
2018-08-27T00:40:47.013Z,46.20
2018-08-27T00:45:49.157Z,47.20
2018-08-27T00:50:51.310Z,47.40
2018-08-27T00:55:53.631Z,48.30
2018-08-27T01:00:57.149Z,47.30
2018-08-27T01:05:59.301Z,46.80
2018-08-27T01:11:01.466Z,46.10
2018-08-27T01:16:05.699Z,46.20
2018-08-27T01:21:10.417Z,46.30
2018-08-27T01:26:13.744Z,46.40
2018-08-27T01:31:16.133Z,46.40
2018-08-27T01:36:18.437Z,46.40
2018-08-27T01:41:20.605Z,46.60
2018-08-27T01:46:22.804Z,47.40
2018-08-27T01:51:24.953Z,47.20
2018-08-27T01:56:27.117Z,47.90
2018-08-27T02:01:31.734Z,47.20
2018-08-27T02:06:36.375Z,47.20
2018-08-27T02:11:40.045Z,47.10
2018-08-27T02:16:42.444Z,47.40
2018-08-27T02:21:45.037Z,47.10
2018-08-27T02:26:47.270Z,47.20
2018-08-27T02:31:49.544Z,47.40
2018-08-27T02:36:52.573Z,47.50
2018-08-27T02:41:54.766Z,47.80
2018-08-27T02:46:56.927Z,47.80
2018-08-27T02:51:59.570Z,47.40
2018-08-27T02:57:03.193Z,46.70
2018-08-27T03:02:06.522Z,46.80
2018-08-27T03:07:10.534Z,46.40
2018-08-27T03:12:16.095Z,45.90
2018-08-27T03:17:18.409Z,45.60
2018-08-27T03:22:20.737Z,45.10
2018-08-27T03:27:23.718Z,44.70
2018-08-27T03:32:25.982Z,44.30
2018-08-27T03:37:29.162Z,43.90
2018-08-27T03:42:31.550Z,43.80
2018-08-27T03:47:37.045Z,43.80
2018-08-27T03:52:39.206Z,43.70
2018-08-27T03:57:41.373Z,44.30
2018-08-27T04:02:45.480Z,44.40
2018-08-27T04:07:49.118Z,44.50
2018-08-27T04:12:51.325Z,44.40
2018-08-27T04:17:53.587Z,44.50
2018-08-27T04:22:57.218Z,44.90
2018-08-27T04:27:59.358Z,44.70
2018-08-27T04:33:01.500Z,44.20
2018-08-27T04:38:03.986Z,43.80
2018-08-27T04:43:06.177Z,43.30
2018-08-27T04:48:08.345Z,42.80
2018-08-27T04:53:12.726Z,43.10
2018-08-27T04:58:16.961Z,43.20
2018-08-27T05:03:21.469Z,43.00
2018-08-27T05:08:26.705Z,42.80
2018-08-27T05:13:29.766Z,42.70
2018-08-27T05:18:33.194Z,42.50
2018-08-27T05:23:36.240Z,42.70
2018-08-27T05:28:38.381Z,43.20
2018-08-27T05:33:40.718Z,43.60
2018-08-27T05:38:43.410Z,44.10
2018-08-27T05:43:45.534Z,44.20
2018-08-27T05:48:47.661Z,44.30
2018-08-27T05:53:49.821Z,44.70
2018-08-27T05:58:51.973Z,45.40
2018-08-27T06:03:54.137Z,48.80
2018-08-27T06:08:59.232Z,52.10
2018-08-27T06:14:04.802Z,53.00
2018-08-27T06:19:06.973Z,55.80
2018-08-27T06:24:09.113Z,57.20
2018-08-27T06:29:11.322Z,54.20
2018-08-27T06:34:13.854Z,54.50
2018-08-27T06:39:17.253Z,54.30
2018-08-27T06:44:19.397Z,58.00
2018-08-27T06:49:21.553Z,61.80
2018-08-27T06:54:26.995Z,65.60
2018-08-27T06:59:30.337Z,64.10
2018-08-27T07:04:32.486Z,65.20
2018-08-27T07:09:37.381Z,65.30
2018-08-27T07:14:42.643Z,69.00
2018-08-27T07:19:47.747Z,71.80
2018-08-27T07:24:53.122Z,71.40
2018-08-27T07:29:58.210Z,70.90
2018-08-27T07:35:03.420Z,70.40
2018-08-27T07:40:05.628Z,68.10
2018-08-27T07:45:08.255Z,67.20
2018-08-27T07:50:11.452Z,65.60
2018-08-27T07:55:13.645Z,65.00
2018-08-27T08:00:21.049Z,64.90
2018-08-27T08:05:23.234Z,64.80
2018-08-27T08:10:25.426Z,64.70
2018-08-27T08:15:28.277Z,62.30
2018-08-27T08:20:31.005Z,62.90
2018-08-27T08:25:33.176Z,62.80
2018-08-27T08:30:35.856Z,62.30
2018-08-27T08:35:39.429Z,62.40
2018-08-27T08:40:45.539Z,62.60
2018-08-27T08:45:47.701Z,61.40
2018-08-27T08:50:49.874Z,60.70
2018-08-27T08:55:52.594Z,59.80
2018-08-27T09:00:57.187Z,59.40
2018-08-27T09:06:01.471Z,60.80
2018-08-27T09:11:08.230Z,62.40
2018-08-27T09:16:12.862Z,61.50
2018-08-27T09:21:17.503Z,60.80
2018-08-27T09:26:22.081Z,61.30
2018-08-27T09:31:26.747Z,66.20
2018-08-27T09:36:29.338Z,74.80
2018-08-27T09:41:31.671Z,76.50
2018-08-27T09:46:33.861Z,75.40
2018-08-27T09:51:36.014Z,71.90
2018-08-27T09:56:41.099Z,71.60
2018-08-27T10:01:49.645Z,72.30
2018-08-27T10:06:51.786Z,68.40
2018-08-27T10:11:54.422Z,69.00
2018-08-27T10:16:58.714Z,72.00
2018-08-27T10:22:01.075Z,71.40
2018-08-27T10:27:03.295Z,75.10
2018-08-27T10:32:05.730Z,77.50
2018-08-27T10:37:09.058Z,78.10
2018-08-27T10:42:13.447Z,79.00
2018-08-27T10:47:16.546Z,81.00
2018-08-27T10:52:19.625Z,80.70
2018-08-27T10:57:23.692Z,81.50
2018-08-27T11:02:28.858Z,87.70
2018-08-27T11:07:34.516Z,99.80
2018-08-27T11:12:38.931Z,99.90
2018-08-27T11:17:42.485Z,99.90
2018-08-27T11:22:47.535Z,99.90
2018-08-27T11:27:49.949Z,99.90
2018-08-27T11:32:52.427Z,99.90
2018-08-27T11:37:54.557Z,99.90
2018-08-27T11:42:56.689Z,99.90
2018-08-27T11:48:01.993Z,99.90
2018-08-27T11:53:04.441Z,99.90
2018-08-27T11:58:07.441Z,99.90
2018-08-27T12:03:10.705Z,99.90
2018-08-27T12:08:14.482Z,99.90
2018-08-27T12:13:16.625Z,99.90
2018-08-27T12:18:18.797Z,99.90
2018-08-27T12:23:21.027Z,99.90
2018-08-27T12:28:24.285Z,99.70
2018-08-27T12:33:28.173Z,97.40
2018-08-27T12:38:30.366Z,97.30
2018-08-27T12:43:32.568Z,96.90
2018-08-27T12:48:35.109Z,93.20
2018-08-27T12:53:37.391Z,95.10
2018-08-27T12:58:39.567Z,91.70
2018-08-27T13:03:42.376Z,88.40
2018-08-27T13:08:45.666Z,84.50
2018-08-27T13:13:49.874Z,83.90
2018-08-27T13:18:55.066Z,83.00
2018-08-27T13:23:57.261Z,83.20
2018-08-27T13:28:59.402Z,80.90
2018-08-27T13:34:01.694Z,79.60
2018-08-27T13:39:06.201Z,80.40
2018-08-27T13:44:08.361Z,80.00
2018-08-27T13:49:10.499Z,83.10
2018-08-27T13:54:12.677Z,84.20
2018-08-27T13:59:15.169Z,82.90
2018-08-27T14:04:18.835Z,80.20
2018-08-27T14:09:21.781Z,79.60
2018-08-27T14:14:23.924Z,79.20
2018-08-27T14:19:26.265Z,77.20
2018-08-27T14:24:28.304Z,76.00
2018-08-27T14:29:31.213Z,75.00
2018-08-27T14:34:35.258Z,74.10
2018-08-27T14:39:37.420Z,70.70
2018-08-27T14:44:39.612Z,70.00
2018-08-27T14:49:41.754Z,68.90
2018-08-27T14:54:44.206Z,69.80
2018-08-27T14:59:46.366Z,71.20
2018-08-27T15:04:48.511Z,71.20
2018-08-27T15:09:50.657Z,72.50
2018-08-27T15:14:53.382Z,72.10
2018-08-27T15:19:56.556Z,72.00
2018-08-27T15:24:59.739Z,71.80
2018-08-27T15:30:02.627Z,71.00
2018-08-27T15:35:06.532Z,69.90
2018-08-27T15:40:08.934Z,70.10
2018-08-27T15:45:11.257Z,69.30
2018-08-27T15:50:14.224Z,69.10
2018-08-27T15:55:16.458Z,68.20
2018-08-27T16:00:18.614Z,68.00
2018-08-27T16:05:20.882Z,67.60
2018-08-27T16:10:23.462Z,67.40
2018-08-27T16:15:26.747Z,68.00
2018-08-27T16:20:28.937Z,68.30
2018-08-27T16:25:31.146Z,68.40
2018-08-27T16:30:33.298Z,68.50
2018-08-27T16:35:35.458Z,68.70
2018-08-27T16:40:38.478Z,68.90
2018-08-27T16:45:41.486Z,68.80
2018-08-27T16:50:44.571Z,69.70
2018-08-27T16:55:46.875Z,69.70
2018-08-27T17:00:51.271Z,71.00
2018-08-27T17:05:55.355Z,68.40
2018-08-27T17:10:57.525Z,67.60
2018-08-27T17:16:00.117Z,68.20
2018-08-27T17:21:02.316Z,68.60
2018-08-27T17:26:05.429Z,68.20
2018-08-27T17:31:08.365Z,68.60
2018-08-27T17:36:10.516Z,68.70
2018-08-27T17:41:12.705Z,68.80
2018-08-27T17:46:14.860Z,69.00
2018-08-27T17:51:17.856Z,69.10
2018-08-27T17:56:21.343Z,68.70
2018-08-27T18:01:23.485Z,69.40
2018-08-27T18:06:25.657Z,69.90
2018-08-27T18:11:27.801Z,70.40
2018-08-27T18:16:31.001Z,70.70
2018-08-27T18:21:33.137Z,71.10
2018-08-27T18:26:35.281Z,71.60
2018-08-27T18:31:37.486Z,72.60
2018-08-27T18:36:39.952Z,73.20
2018-08-27T18:41:42.966Z,73.50
2018-08-27T18:46:47.132Z,73.20
2018-08-27T18:51:50.422Z,73.60
2018-08-27T18:56:53.621Z,73.90
2018-08-27T19:01:55.766Z,74.20
2018-08-27T19:06:57.930Z,74.80
2018-08-27T19:12:00.493Z,75.10
2018-08-27T19:17:02.802Z,75.70
2018-08-27T19:22:05.737Z,76.40
2018-08-27T19:27:09.437Z,76.70
2018-08-27T19:32:11.598Z,77.30
2018-08-27T19:37:13.989Z,77.20
2018-08-27T19:42:16.721Z,77.50
2018-08-27T19:47:19.523Z,77.70
2018-08-27T19:52:21.817Z,78.00
2018-08-27T19:57:24.005Z,78.10
2018-08-27T20:02:26.165Z,77.60
2018-08-27T20:07:28.413Z,77.40
2018-08-27T20:12:30.876Z,77.60
2018-08-27T20:17:33.303Z,78.00
2018-08-27T20:22:35.618Z,78.10
2018-08-27T20:27:37.771Z,78.30
2018-08-27T20:32:39.945Z,78.40
2018-08-27T20:37:43.065Z,78.90
2018-08-27T20:42:45.241Z,79.00
2018-08-27T20:47:47.421Z,79.80
2018-08-27T20:52:49.578Z,80.50
2018-08-27T20:57:51.729Z,81.00
2018-08-27T21:02:53.913Z,81.70
2018-08-27T21:07:58.309Z,82.30
2018-08-27T21:13:02.808Z,84.20
2018-08-27T21:18:06.949Z,83.90
2018-08-27T21:23:10.978Z,84.20
2018-08-27T21:28:14.771Z,85.40
2018-08-27T21:33:18.412Z,87.00
2018-08-27T21:38:21.797Z,87.80
2018-08-27T21:43:25.514Z,88.00
2018-08-27T21:48:30.478Z,88.60
2018-08-27T21:53:32.889Z,89.30
2018-08-27T21:58:35.166Z,89.50
2018-08-27T22:03:43.117Z,90.00
2018-08-27T22:08:47.679Z,90.90
2018-08-27T22:13:49.854Z,93.60
2018-08-27T22:18:51.978Z,94.20
2018-08-27T22:23:54.965Z,95.30
2018-08-27T22:28:58.706Z,96.40
2018-08-27T22:34:01.556Z,99.00
2018-08-27T22:39:05.065Z,98.60
2018-08-27T22:44:08.929Z,99.90
2018-08-27T22:49:12.581Z,99.90
2018-08-27T22:54:17.593Z,99.90
2018-08-27T22:59:20.073Z,99.80
2018-08-27T23:04:30.097Z,99.90
2018-08-27T23:09:32.649Z,99.90
2018-08-27T23:14:39.614Z,99.90
2018-08-27T23:19:41.713Z,99.90
2018-08-27T23:24:45.614Z,99.90
2018-08-27T23:29:48.617Z,99.90
2018-08-27T23:34:54.353Z,99.90
2018-08-27T23:39:57.084Z,99.90
2018-08-27T23:45:00.596Z,99.90
2018-08-27T23:50:06.183Z,99.90
2018-08-27T23:55:09.666Z,99.90
